createdAt,value
2023-06-01T00:00:20.066Z,59.70
2023-06-01T00:01:13.684Z,59.63
2023-06-01T00:02:05.858Z,59.73
2023-06-01T00:02:56.652Z,60.08
2023-06-01T00:03:47.490Z,60.12
2023-06-01T00:04:41.820Z,60.14
2023-06-01T00:05:32.742Z,59.77
2023-06-01T00:06:23.536Z,59.92
2023-06-01T00:07:14.286Z,60.11
2023-06-01T00:08:05.590Z,60.78
2023-06-01T00:08:56.363Z,61.33
2023-06-01T00:09:47.161Z,60.99
2023-06-01T00:10:37.949Z,60.91
2023-06-01T00:11:29.048Z,60.78
2023-06-01T00:12:19.965Z,60.44
2023-06-01T00:13:10.694Z,59.62
2023-06-01T00:14:01.461Z,59.65
2023-06-01T00:14:52.351Z,59.90
2023-06-01T00:15:44.770Z,59.60
2023-06-01T00:16:36.087Z,59.78
2023-06-01T00:17:30.183Z,59.11
2023-06-01T00:18:21.107Z,58.95
2023-06-01T00:19:12.378Z,59.14
2023-06-01T00:20:08.817Z,59.53
2023-06-01T00:21:01.623Z,59.32
2023-06-01T00:21:56.834Z,60.55
2023-06-01T00:22:49.928Z,59.83
2023-06-01T00:23:43.933Z,60.62
2023-06-01T00:24:34.648Z,60.75
2023-06-01T00:25:25.595Z,60.34
2023-06-01T00:26:16.737Z,60.30
2023-06-01T00:27:13.642Z,60.45
2023-06-01T00:28:04.417Z,60.86
2023-06-01T00:28:55.349Z,60.84
2023-06-01T00:29:46.051Z,60.32
2023-06-01T00:30:37.966Z,60.86
2023-06-01T00:31:28.768Z,60.96
2023-06-01T00:32:19.469Z,60.35
2023-06-01T00:33:11.668Z,61.18
2023-06-01T00:34:02.464Z,61.14
2023-06-01T00:34:53.330Z,61.24
2023-06-01T00:35:44.549Z,60.60
2023-06-01T00:36:36.724Z,61.12
2023-06-01T00:37:27.655Z,61.65
2023-06-01T00:38:18.317Z,61.41
2023-06-01T00:39:09.169Z,62.16
2023-06-01T00:39:59.976Z,62.11
2023-06-01T00:40:52.093Z,61.63
2023-06-01T00:41:42.724Z,61.03
2023-06-01T00:42:33.542Z,61.97
2023-06-01T00:43:24.714Z,61.69
2023-06-01T00:44:16.084Z,61.55
2023-06-01T00:45:07.224Z,61.37
2023-06-01T00:45:58.122Z,61.61
2023-06-01T00:46:50.945Z,61.48
2023-06-01T00:47:44.225Z,61.43
2023-06-01T00:48:36.055Z,61.71
2023-06-01T00:49:27.578Z,61.98
2023-06-01T00:50:19.183Z,62.15
2023-06-01T00:51:09.985Z,61.68
2023-06-01T00:52:01.502Z,62.56
2023-06-01T00:52:53.851Z,62.63
2023-06-01T00:53:45.431Z,62.91
2023-06-01T00:54:36.877Z,62.57
2023-06-01T00:55:28.320Z,62.36
2023-06-01T00:56:19.860Z,62.55
2023-06-01T00:57:10.938Z,62.29
2023-06-01T00:58:02.619Z,62.69
2023-06-01T00:58:53.854Z,61.35
2023-06-01T00:59:44.462Z,61.52
2023-06-01T01:00:35.439Z,61.44
2023-06-01T01:01:27.232Z,61.40
2023-06-01T01:02:19.627Z,61.52
2023-06-01T01:03:11.562Z,62.06
2023-06-01T01:04:03.133Z,62.24
2023-06-01T01:04:54.089Z,62.16
2023-06-01T01:05:45.352Z,61.77
2023-06-01T01:06:57.449Z,61.87
2023-06-01T01:08:31.757Z,61.13
2023-06-01T01:09:45.762Z,61.56
2023-06-01T01:11:04.801Z,61.28
2023-06-01T01:12:02.935Z,61.45
2023-06-01T01:13:09.232Z,61.93
2023-06-01T01:14:10.888Z,62.21
2023-06-01T01:15:23.155Z,62.63
2023-06-01T01:16:36.626Z,62.02
2023-06-01T01:17:46.678Z,62.33
2023-06-01T01:18:43.431Z,62.33
2023-06-01T01:19:35.503Z,62.75
2023-06-01T01:20:30.641Z,62.60
2023-06-01T01:21:31.074Z,62.46
2023-06-01T01:22:47.802Z,62.13
2023-06-01T01:24:07.760Z,62.40
2023-06-01T01:25:08.351Z,61.91
2023-06-01T01:26:30.499Z,61.89
2023-06-01T01:27:38.442Z,62.76
2023-06-01T01:28:43.485Z,62.45
2023-06-01T01:29:36.178Z,63.58
2023-06-01T01:30:29.629Z,63.41
2023-06-01T01:31:24.781Z,63.25
2023-06-01T01:32:18.003Z,62.87
2023-06-01T01:33:09.067Z,62.83
2023-06-01T01:34:00.578Z,63.14
2023-06-01T01:34:53.428Z,63.17
2023-06-01T01:35:44.434Z,63.36
2023-06-01T01:36:37.206Z,63.88
2023-06-01T01:37:30.691Z,63.07
2023-06-01T01:38:21.882Z,63.95
2023-06-01T01:39:12.703Z,64.29
2023-06-01T01:40:04.514Z,64.20
2023-06-01T01:40:55.523Z,64.43
2023-06-01T01:41:46.611Z,64.10
2023-06-01T01:42:37.362Z,64.25
2023-06-01T01:43:28.170Z,63.69
2023-06-01T01:44:20.139Z,63.88
2023-06-01T01:45:11.730Z,63.54
2023-06-01T01:46:16.489Z,63.07
2023-06-01T01:47:14.298Z,64.00
2023-06-01T01:48:24.041Z,63.97
2023-06-01T01:49:28.415Z,64.00
2023-06-01T01:50:22.672Z,63.90
2023-06-01T01:51:40.989Z,63.65
2023-06-01T01:52:40.987Z,64.57
2023-06-01T01:53:32.363Z,63.88
2023-06-01T01:54:25.490Z,64.00
2023-06-01T01:55:19.696Z,64.03
2023-06-01T01:56:10.675Z,63.88
2023-06-01T01:57:02.563Z,63.54
2023-06-01T01:57:54.392Z,62.68
2023-06-01T01:58:46.289Z,63.67
2023-06-01T01:59:37.749Z,63.95
2023-06-01T02:00:29.329Z,64.08
2023-06-01T02:01:21.707Z,63.97
2023-06-01T02:02:12.968Z,64.53
2023-06-01T02:03:04.173Z,65.15
2023-06-01T02:04:05.450Z,65.06
2023-06-01T02:04:56.547Z,65.05
2023-06-01T02:05:47.580Z,64.82
2023-06-01T02:06:38.516Z,64.92
2023-06-01T02:07:30.075Z,64.98
2023-06-01T02:08:21.455Z,64.50
2023-06-01T02:09:12.242Z,65.81
2023-06-01T02:10:04.069Z,64.93
2023-06-01T02:10:55.254Z,65.14
2023-06-01T02:11:46.086Z,64.74
2023-06-01T02:12:37.369Z,64.19
2023-06-01T02:13:28.042Z,64.29
2023-06-01T02:14:18.815Z,64.70
2023-06-01T02:15:10.070Z,65.61
2023-06-01T02:16:01.041Z,65.42
2023-06-01T02:16:54.938Z,65.23
2023-06-01T02:17:47.074Z,65.17
2023-06-01T02:18:40.428Z,65.40
2023-06-01T02:19:32.068Z,65.70
2023-06-01T02:20:23.140Z,66.68
2023-06-01T02:21:14.851Z,66.06
2023-06-01T02:22:05.998Z,66.11
2023-06-01T02:22:57.031Z,66.52
2023-06-01T02:23:47.754Z,66.27
2023-06-01T02:24:38.649Z,65.70
2023-06-01T02:25:29.514Z,65.45
2023-06-01T02:26:20.504Z,64.84
2023-06-01T02:27:11.495Z,64.71
2023-06-01T02:28:02.874Z,65.16
2023-06-01T02:29:44.679Z,63.73
2023-06-01T02:30:35.901Z,64.08
2023-06-01T02:31:27.942Z,63.96
2023-06-01T02:32:18.843Z,65.12
2023-06-01T02:33:09.675Z,64.05
2023-06-01T02:34:03.054Z,63.92
2023-06-01T02:34:54.240Z,63.99
2023-06-01T02:35:44.960Z,64.09
2023-06-01T02:36:36.297Z,64.61
2023-06-01T02:37:27.363Z,64.03
2023-06-01T02:38:18.454Z,64.08
2023-06-01T02:39:09.206Z,65.45
2023-06-01T02:39:59.889Z,65.36
2023-06-01T02:40:50.927Z,65.70
2023-06-01T02:41:41.848Z,65.83
2023-06-01T02:42:32.522Z,65.05
2023-06-01T02:43:23.187Z,66.17
2023-06-01T02:44:14.093Z,66.19
2023-06-01T02:45:07.469Z,66.16
2023-06-01T02:45:58.262Z,65.92
2023-06-01T02:46:51.493Z,65.08
2023-06-01T02:47:42.425Z,64.78
2023-06-01T02:48:33.071Z,65.90
2023-06-01T02:49:23.916Z,65.72
2023-06-01T02:50:15.165Z,66.04
2023-06-01T02:51:10.130Z,65.69
2023-06-01T02:52:01.579Z,64.62
2023-06-01T02:52:53.195Z,65.23
2023-06-01T02:53:44.134Z,64.93
2023-06-01T02:54:37.498Z,65.91
2023-06-01T02:55:45.576Z,65.64
2023-06-01T02:57:03.733Z,66.77
2023-06-01T02:58:00.680Z,66.49
2023-06-01T02:58:53.660Z,66.45
2023-06-01T02:59:50.679Z,65.33
2023-06-01T03:00:41.502Z,66.26
2023-06-01T03:01:36.353Z,66.49
2023-06-01T03:02:29.185Z,66.64
2023-06-01T03:03:19.928Z,66.22
2023-06-01T03:04:12.042Z,66.52
2023-06-01T03:05:07.248Z,66.76
2023-06-01T03:06:01.243Z,65.76
2023-06-01T03:07:18.375Z,66.57
2023-06-01T03:08:18.809Z,65.95
2023-06-01T03:09:14.334Z,66.64
2023-06-01T03:10:31.407Z,66.38
2023-06-01T03:11:27.712Z,67.10
2023-06-01T03:12:18.368Z,66.33
2023-06-01T03:13:09.148Z,66.04
2023-06-01T03:13:59.977Z,65.92
2023-06-01T03:14:53.053Z,66.09
2023-06-01T03:15:43.920Z,66.50
2023-06-01T03:16:35.926Z,66.12
2023-06-01T03:17:46.643Z,65.27
2023-06-01T03:18:38.928Z,65.41
2023-06-01T03:19:30.223Z,64.87
2023-06-01T03:20:23.965Z,65.95
2023-06-01T03:21:14.853Z,65.42
2023-06-01T03:22:06.562Z,65.24
2023-06-01T03:22:57.370Z,64.91
2023-06-01T03:23:48.191Z,65.49
2023-06-01T03:24:42.343Z,65.43
2023-06-01T03:25:34.531Z,65.28
2023-06-01T03:26:25.762Z,65.26
2023-06-01T03:27:18.002Z,65.21
2023-06-01T03:28:09.036Z,65.45
2023-06-01T03:29:01.652Z,64.83
2023-06-01T03:29:55.685Z,64.27
2023-06-01T03:30:47.910Z,64.96
2023-06-01T03:31:38.948Z,64.26
2023-06-01T03:32:29.819Z,64.55
2023-06-01T03:33:23.172Z,64.22
2023-06-01T03:34:14.267Z,63.10
2023-06-01T03:35:08.474Z,62.44
2023-06-01T03:35:59.249Z,61.38
2023-06-01T03:36:50.794Z,61.96
2023-06-01T03:37:43.506Z,61.23
2023-06-01T03:38:35.755Z,59.98
2023-06-01T03:39:26.886Z,58.90
2023-06-01T03:40:17.702Z,58.55
2023-06-01T03:41:09.528Z,58.21
2023-06-01T03:42:00.634Z,57.52
2023-06-01T03:42:51.833Z,56.22
2023-06-01T03:43:43.138Z,55.71
2023-06-01T03:44:34.287Z,54.25
2023-06-01T03:45:25.184Z,53.21
2023-06-01T03:46:16.579Z,53.00
2023-06-01T03:47:07.300Z,51.91
2023-06-01T03:47:58.688Z,51.10
2023-06-01T03:48:49.459Z,51.97
2023-06-01T03:49:40.261Z,51.76
2023-06-01T03:50:36.877Z,50.87
2023-06-01T03:51:28.242Z,50.41
2023-06-01T03:52:19.394Z,50.11
2023-06-01T03:53:10.568Z,49.88
2023-06-01T03:54:01.944Z,49.92
2023-06-01T03:54:53.224Z,49.09
2023-06-01T03:56:04.078Z,47.49
2023-06-01T03:56:57.116Z,46.87
2023-06-01T03:57:48.019Z,46.63
2023-06-01T03:58:39.086Z,45.37
2023-06-01T03:59:30.089Z,46.14
2023-06-01T04:00:21.599Z,45.84
2023-06-01T04:01:18.004Z,45.06
2023-06-01T04:02:12.028Z,44.04
2023-06-01T04:03:08.156Z,44.99
2023-06-01T04:03:59.836Z,44.42
2023-06-01T04:04:50.952Z,44.33
2023-06-01T04:05:42.373Z,44.60
2023-06-01T04:06:36.562Z,44.38
2023-06-01T04:07:28.613Z,44.98
2023-06-01T04:08:21.308Z,44.12
2023-06-01T04:09:12.990Z,44.24
2023-06-01T04:10:04.016Z,43.62
2023-06-01T04:10:54.985Z,43.93
2023-06-01T04:11:46.763Z,43.59
2023-06-01T04:12:38.290Z,42.95
2023-06-01T04:13:29.995Z,42.22
2023-06-01T04:14:21.785Z,42.25
2023-06-01T04:15:14.463Z,42.11
2023-06-01T04:16:05.870Z,41.79
2023-06-01T04:16:57.741Z,41.97
2023-06-01T04:17:48.832Z,41.11
2023-06-01T04:18:40.026Z,40.65
2023-06-01T04:19:31.035Z,39.96
2023-06-01T04:20:27.460Z,39.95
2023-06-01T04:21:21.616Z,40.00
2023-06-01T04:22:13.556Z,39.58
2023-06-01T04:23:04.286Z,39.28
2023-06-01T04:23:55.092Z,39.29
2023-06-01T04:24:46.791Z,39.36
2023-06-01T04:25:40.189Z,38.84
2023-06-01T04:26:33.088Z,38.74
2023-06-01T04:27:25.684Z,38.84
2023-06-01T04:28:16.616Z,37.98
2023-06-01T04:29:09.701Z,38.12
2023-06-01T04:30:02.100Z,37.95
2023-06-01T04:30:53.106Z,38.82
2023-06-01T04:31:44.440Z,39.59
2023-06-01T04:32:38.946Z,38.95
2023-06-01T04:33:29.946Z,38.50
2023-06-01T04:34:21.806Z,37.89
2023-06-01T04:35:13.235Z,37.76
2023-06-01T04:36:04.550Z,37.25
2023-06-01T04:36:57.106Z,38.85
2023-06-01T04:37:50.202Z,38.96
2023-06-01T04:38:42.991Z,38.21
2023-06-01T04:39:35.815Z,38.09
2023-06-01T04:40:27.818Z,37.17
2023-06-01T04:41:18.722Z,36.93
2023-06-01T04:42:09.804Z,36.93
2023-06-01T04:43:03.697Z,37.20
2023-06-01T04:43:55.716Z,37.41
2023-06-01T04:44:50.704Z,37.54
2023-06-01T04:45:41.879Z,38.04
2023-06-01T04:46:33.541Z,37.44
2023-06-01T04:48:21.240Z,37.30
2023-06-01T04:49:19.677Z,37.94
2023-06-01T04:50:12.326Z,37.87
2023-06-01T04:51:05.190Z,37.25
2023-06-01T04:51:56.492Z,37.27
2023-06-01T04:52:49.127Z,37.63
2023-06-01T04:53:41.808Z,38.82
2023-06-01T04:54:32.535Z,38.32
2023-06-01T04:55:23.254Z,38.35
2023-06-01T04:56:14.098Z,38.53
2023-06-01T04:57:07.250Z,38.06
2023-06-01T04:57:58.641Z,37.86
2023-06-01T04:58:50.016Z,38.00
2023-06-01T04:59:44.103Z,38.80
2023-06-01T05:00:34.733Z,39.05
2023-06-01T05:01:27.202Z,39.29
2023-06-01T05:02:19.000Z,37.54
2023-06-01T05:03:09.771Z,37.41
2023-06-01T05:04:01.644Z,36.56
2023-06-01T05:04:52.883Z,35.94
2023-06-01T05:05:45.263Z,34.86
2023-06-01T05:06:37.120Z,34.18
2023-06-01T05:07:28.267Z,34.86
2023-06-01T05:08:19.150Z,34.28
2023-06-01T05:09:09.904Z,34.37
2023-06-01T05:10:05.287Z,34.07
2023-06-01T05:10:58.001Z,35.33
2023-06-01T05:11:49.080Z,34.79
2023-06-01T05:12:40.587Z,34.87
2023-06-01T05:13:31.347Z,35.54
2023-06-01T05:14:22.162Z,34.80
2023-06-01T05:15:14.578Z,34.21
2023-06-01T05:16:07.749Z,35.36
2023-06-01T05:16:58.886Z,35.62
2023-06-01T05:17:51.031Z,35.76
2023-06-01T05:18:44.024Z,35.58
2023-06-01T05:19:34.765Z,35.73
2023-06-01T05:20:25.588Z,34.86
2023-06-01T05:21:22.755Z,34.33
2023-06-01T05:22:14.679Z,34.87
2023-06-01T05:23:05.426Z,33.92
2023-06-01T05:23:56.844Z,33.23
2023-06-01T05:24:47.804Z,32.74
2023-06-01T05:25:39.199Z,33.40
2023-06-01T05:26:30.170Z,32.64
2023-06-01T05:27:22.553Z,34.05
2023-06-01T05:28:13.294Z,33.76
2023-06-01T05:29:05.404Z,34.07
2023-06-01T05:29:56.751Z,35.09
2023-06-01T05:30:51.536Z,35.50
2023-06-01T05:31:42.747Z,36.31
2023-06-01T05:32:34.108Z,35.27
2023-06-01T05:33:31.684Z,34.80
2023-06-01T05:34:23.463Z,35.25
2023-06-01T05:35:14.564Z,35.87
2023-06-01T05:36:05.848Z,36.29
2023-06-01T05:36:57.314Z,35.98
2023-06-01T05:37:48.468Z,34.95
2023-06-01T05:38:39.995Z,35.25
2023-06-01T05:39:31.887Z,35.32
2023-06-01T05:40:22.878Z,34.24
2023-06-01T05:41:13.509Z,34.14
2023-06-01T05:42:05.195Z,34.09
2023-06-01T05:43:00.490Z,34.50
2023-06-01T05:43:52.388Z,34.69
2023-06-01T05:44:44.178Z,33.80
2023-06-01T05:45:37.100Z,34.42
2023-06-01T05:46:28.165Z,34.90
2023-06-01T05:47:18.885Z,34.90
2023-06-01T05:48:09.657Z,34.63
2023-06-01T05:49:00.763Z,33.82
2023-06-01T05:49:52.106Z,33.85
2023-06-01T05:50:43.327Z,33.64
2023-06-01T05:51:37.915Z,33.50
2023-06-01T05:52:29.831Z,33.79
2023-06-01T05:53:20.709Z,33.38
2023-06-01T05:54:12.242Z,34.39
2023-06-01T05:55:03.708Z,33.79
2023-06-01T05:55:54.948Z,34.28
2023-06-01T05:56:45.856Z,34.43
2023-06-01T05:57:38.410Z,33.74
2023-06-01T05:58:29.702Z,34.73
2023-06-01T05:59:21.424Z,34.84
2023-06-01T06:00:14.804Z,35.21
2023-06-01T06:01:11.259Z,34.14
2023-06-01T06:02:02.301Z,33.21
2023-06-01T06:02:52.934Z,31.84
2023-06-01T06:03:44.037Z,33.78
2023-06-01T06:04:34.989Z,33.52
2023-06-01T06:05:25.707Z,33.10
2023-06-01T06:06:17.029Z,32.85
2023-06-01T06:07:10.185Z,32.62
2023-06-01T06:08:02.137Z,33.65
2023-06-01T06:08:52.933Z,33.99
2023-06-01T06:09:43.440Z,34.11
2023-06-01T06:10:34.163Z,33.58
2023-06-01T06:11:25.302Z,34.01
2023-06-01T06:12:16.518Z,32.66
2023-06-01T06:13:07.260Z,34.02
2023-06-01T06:13:58.483Z,32.77
2023-06-01T06:14:50.111Z,32.58
2023-06-01T06:15:40.842Z,32.07
2023-06-01T06:16:31.874Z,31.75
2023-06-01T06:17:23.040Z,32.48
2023-06-01T06:18:13.881Z,31.71
2023-06-01T06:19:04.721Z,31.82
2023-06-01T06:19:55.456Z,32.28
2023-06-01T06:20:47.335Z,32.21
2023-06-01T06:21:38.943Z,31.91
2023-06-01T06:22:29.818Z,32.02
2023-06-01T06:23:22.133Z,32.56
2023-06-01T06:24:13.042Z,33.13
2023-06-01T06:25:05.114Z,32.07
2023-06-01T06:25:56.498Z,31.78
2023-06-01T06:26:48.393Z,32.26
2023-06-01T06:27:39.201Z,32.32
2023-06-01T06:28:30.041Z,31.86
2023-06-01T06:29:20.921Z,32.07
2023-06-01T06:30:14.256Z,32.83
2023-06-01T06:31:05.173Z,33.16
2023-06-01T06:31:56.155Z,33.17
2023-06-01T06:32:47.107Z,32.43
2023-06-01T06:33:40.497Z,32.03
2023-06-01T06:34:36.689Z,31.62
2023-06-01T06:35:27.603Z,31.08
2023-06-01T06:36:18.549Z,31.44
2023-06-01T06:37:09.277Z,31.02
2023-06-01T06:37:59.991Z,30.95
2023-06-01T06:38:50.960Z,30.87
2023-06-01T06:39:41.984Z,30.89
2023-06-01T06:40:32.676Z,31.49
2023-06-01T06:41:24.272Z,31.35
2023-06-01T06:42:15.436Z,30.54
2023-06-01T06:43:06.163Z,30.31
2023-06-01T06:43:56.796Z,30.47
2023-06-01T06:44:47.555Z,30.56
2023-06-01T06:48:05.123Z,30.76
2023-06-01T06:48:56.417Z,30.50
2023-06-01T06:49:47.551Z,30.88
2023-06-01T06:50:39.579Z,30.64
2023-06-01T06:51:30.259Z,30.18
2023-06-01T06:52:21.116Z,30.47
2023-06-01T06:53:13.255Z,30.13
2023-06-01T06:54:06.413Z,30.02
2023-06-01T06:54:58.168Z,30.26
2023-06-01T06:55:49.157Z,31.18
2023-06-01T06:56:39.853Z,31.60
2023-06-01T06:57:30.880Z,31.23
2023-06-01T06:58:21.952Z,32.17
2023-06-01T06:59:13.789Z,32.40
2023-06-01T07:00:05.264Z,32.28
2023-06-01T07:00:56.263Z,31.90
2023-06-01T07:01:47.893Z,32.00
2023-06-01T07:02:38.515Z,31.71
2023-06-01T07:03:29.407Z,31.52
2023-06-01T07:04:20.519Z,31.56
2023-06-01T07:05:12.073Z,31.86
2023-06-01T07:06:03.100Z,32.37
2023-06-01T07:06:54.426Z,33.16
2023-06-01T07:07:45.810Z,32.95
2023-06-01T07:08:37.207Z,32.87
2023-06-01T07:09:28.006Z,32.22
2023-06-01T07:10:19.014Z,32.58
2023-06-01T07:11:10.259Z,32.54
2023-06-01T07:12:01.104Z,32.49
2023-06-01T07:12:51.853Z,31.64
2023-06-01T07:13:42.666Z,31.29
2023-06-01T07:14:33.570Z,32.02
2023-06-01T07:15:25.429Z,32.28
2023-06-01T07:16:17.071Z,32.33
2023-06-01T07:17:08.329Z,31.81
2023-06-01T07:17:59.686Z,31.65
2023-06-01T07:18:50.703Z,31.39
2023-06-01T07:19:41.400Z,31.25
2023-06-01T07:20:32.141Z,30.87
2023-06-01T07:21:23.265Z,30.11
2023-06-01T07:22:14.794Z,30.90
2023-06-01T07:23:05.774Z,30.93
2023-06-01T07:23:57.044Z,30.74
2023-06-01T07:24:48.671Z,30.27
2023-06-01T07:25:39.946Z,31.12
2023-06-01T07:26:30.973Z,31.60
2023-06-01T07:27:22.116Z,31.63
2023-06-01T07:28:14.071Z,31.03
2023-06-01T07:29:04.948Z,30.90
2023-06-01T07:29:57.094Z,30.67
2023-06-01T07:30:48.250Z,30.24
2023-06-01T07:31:40.103Z,30.10
2023-06-01T07:32:31.220Z,30.33
2023-06-01T07:33:23.981Z,30.58
2023-06-01T07:34:14.798Z,30.66
2023-06-01T07:35:07.554Z,30.07
2023-06-01T07:35:59.497Z,30.43
2023-06-01T07:36:51.593Z,30.77
2023-06-01T07:37:47.057Z,31.34
2023-06-01T07:38:39.377Z,30.75
2023-06-01T07:39:32.060Z,30.38
2023-06-01T07:40:23.267Z,30.59
2023-06-01T07:41:14.481Z,30.96
2023-06-01T07:42:07.639Z,30.77
2023-06-01T07:42:58.296Z,31.17
2023-06-01T07:43:49.011Z,30.74
2023-06-01T07:44:39.681Z,31.27
2023-06-01T07:45:30.517Z,30.85
2023-06-01T07:46:21.639Z,30.78
2023-06-01T07:47:12.383Z,29.99
2023-06-01T07:48:03.218Z,30.21
2023-06-01T07:48:54.050Z,30.63
2023-06-01T07:49:44.724Z,30.05
2023-06-01T07:50:35.743Z,29.92
2023-06-01T07:51:26.691Z,29.99
2023-06-01T07:52:33.475Z,30.70
2023-06-01T07:53:27.450Z,30.59
2023-06-01T07:54:19.148Z,30.77
2023-06-01T07:55:11.055Z,30.28
2023-06-01T07:56:02.600Z,30.18
2023-06-01T07:56:54.742Z,30.37
2023-06-01T07:57:45.730Z,31.10
2023-06-01T07:58:37.687Z,30.53
2023-06-01T07:59:30.032Z,30.34
2023-06-01T08:00:21.089Z,30.33
2023-06-01T08:01:12.078Z,30.97
2023-06-01T08:02:03.106Z,31.04
2023-06-01T08:02:54.215Z,30.81
2023-06-01T08:03:45.147Z,30.41
2023-06-01T08:04:36.659Z,30.47
2023-06-01T08:05:27.942Z,30.29
2023-06-01T08:06:19.041Z,30.02
2023-06-01T08:07:10.367Z,30.33
2023-06-01T08:08:01.668Z,30.77
2023-06-01T08:08:52.366Z,31.39
2023-06-01T08:09:44.396Z,31.40
2023-06-01T08:10:35.389Z,31.29
2023-06-01T08:11:29.457Z,30.25
2023-06-01T08:12:20.283Z,30.42
2023-06-01T08:13:11.174Z,30.58
2023-06-01T08:14:01.927Z,31.00
2023-06-01T08:14:52.860Z,31.09
2023-06-01T08:15:44.136Z,30.39
2023-06-01T08:16:35.992Z,30.29
2023-06-01T08:17:26.996Z,30.61
2023-06-01T08:18:17.748Z,30.34
2023-06-01T08:19:09.094Z,29.58
2023-06-01T08:19:59.938Z,30.42
2023-06-01T08:20:50.971Z,31.47
2023-06-01T08:21:42.552Z,32.72
2023-06-01T08:22:34.885Z,32.79
2023-06-01T08:23:25.647Z,32.84
2023-06-01T08:24:17.638Z,33.11
2023-06-01T08:25:08.865Z,33.18
2023-06-01T08:26:00.149Z,33.04
2023-06-01T08:26:52.055Z,32.88
2023-06-01T08:27:43.386Z,33.15
2023-06-01T08:28:34.551Z,33.49
2023-06-01T08:29:41.420Z,33.12
2023-06-01T08:30:33.744Z,33.60
2023-06-01T08:31:26.043Z,33.67
2023-06-01T08:32:18.294Z,33.76
2023-06-01T08:33:09.484Z,33.10
2023-06-01T08:34:00.208Z,33.40
2023-06-01T08:34:50.963Z,33.69
2023-06-01T08:35:41.777Z,33.56
2023-06-01T08:36:32.831Z,33.23
2023-06-01T08:37:23.568Z,33.27
2023-06-01T08:38:14.396Z,33.47
2023-06-01T08:39:22.462Z,34.74
2023-06-01T08:40:13.746Z,34.93
2023-06-01T08:41:13.005Z,33.69
2023-06-01T08:42:14.560Z,33.14
2023-06-01T08:43:19.743Z,32.97
2023-06-01T08:44:12.573Z,32.86
2023-06-01T08:45:06.537Z,32.41
2023-06-01T08:45:58.743Z,30.78
2023-06-01T08:46:49.920Z,30.45
2023-06-01T08:47:42.063Z,30.66
2023-06-01T08:48:33.192Z,31.54
2023-06-01T08:49:26.046Z,31.32
2023-06-01T08:50:17.479Z,30.84
2023-06-01T08:51:08.907Z,31.41
2023-06-01T08:52:05.622Z,31.42
2023-06-01T08:52:57.920Z,31.44
2023-06-01T08:53:50.551Z,31.41
2023-06-01T08:54:41.375Z,31.00
2023-06-01T08:55:32.240Z,30.68
2023-06-01T08:56:23.398Z,30.60
2023-06-01T08:57:14.984Z,30.03
2023-06-01T08:58:06.557Z,29.69
2023-06-01T08:58:57.793Z,28.90
2023-06-01T08:59:48.460Z,29.35
2023-06-01T09:00:39.855Z,29.50
2023-06-01T09:01:30.984Z,29.17
2023-06-01T09:02:22.144Z,28.97
2023-06-01T09:03:13.930Z,29.31
2023-06-01T09:04:04.970Z,30.01
2023-06-01T09:04:56.293Z,30.35
2023-06-01T09:05:46.972Z,30.79
2023-06-01T09:06:40.515Z,31.40
2023-06-01T09:07:34.131Z,31.60
2023-06-01T09:08:25.771Z,32.30
2023-06-01T09:09:16.614Z,31.98
2023-06-01T09:10:08.586Z,31.99
2023-06-01T09:11:01.051Z,32.64
2023-06-01T09:12:26.890Z,32.78
2023-06-01T09:13:38.115Z,33.78
2023-06-01T09:14:28.840Z,33.83
2023-06-01T09:15:20.373Z,33.91
2023-06-01T09:16:11.350Z,33.79
2023-06-01T09:17:02.209Z,33.66
2023-06-01T09:18:04.534Z,34.19
2023-06-01T09:18:56.405Z,33.71
2023-06-01T09:19:47.389Z,33.31
2023-06-01T09:20:40.613Z,33.01
2023-06-01T09:21:32.421Z,32.96
2023-06-01T09:22:23.717Z,32.62
2023-06-01T09:23:30.001Z,32.85
2023-06-01T09:24:23.022Z,32.33
2023-06-01T09:25:15.292Z,32.00
2023-06-01T09:26:07.791Z,31.81
2023-06-01T09:27:03.912Z,31.75
2023-06-01T09:27:56.584Z,31.47
2023-06-01T09:29:00.496Z,30.81
2023-06-01T09:29:58.746Z,30.44
2023-06-01T09:30:49.670Z,30.37
2023-06-01T09:31:42.459Z,30.55
2023-06-01T09:32:34.864Z,30.95
2023-06-01T09:33:26.549Z,31.25
2023-06-01T09:34:21.758Z,31.35
2023-06-01T09:35:12.788Z,31.50
2023-06-01T09:36:03.758Z,31.85
2023-06-01T09:36:56.654Z,31.25
2023-06-01T09:37:57.539Z,31.50
2023-06-01T09:38:48.709Z,31.69
2023-06-01T09:39:39.499Z,31.81
2023-06-01T09:40:30.660Z,32.42
2023-06-01T09:41:23.959Z,32.09
2023-06-01T09:42:15.493Z,31.96
2023-06-01T09:43:22.930Z,31.44
2023-06-01T09:44:15.230Z,31.95
2023-06-01T09:45:38.691Z,32.04
2023-06-01T09:46:29.641Z,31.89
2023-06-01T09:47:29.232Z,31.69
2023-06-01T09:48:20.139Z,31.43
2023-06-01T09:49:10.821Z,31.20
2023-06-01T09:50:04.397Z,30.74
2023-06-01T09:50:55.023Z,30.67
2023-06-01T09:51:45.964Z,30.92
2023-06-01T09:52:36.794Z,31.54
2023-06-01T09:53:28.088Z,30.94
2023-06-01T09:54:27.027Z,31.51
2023-06-01T09:55:17.917Z,31.12
2023-06-01T09:56:08.624Z,30.92
2023-06-01T09:57:10.811Z,30.73
2023-06-01T09:58:22.800Z,32.26
2023-06-01T09:59:15.390Z,32.85
2023-06-01T10:00:07.021Z,33.18
2023-06-01T10:01:02.133Z,33.19
2023-06-01T10:01:54.804Z,34.26
2023-06-01T10:02:46.231Z,35.07
2023-06-01T10:03:43.306Z,35.06
2023-06-01T10:04:38.229Z,35.60
2023-06-01T10:05:29.365Z,35.66
2023-06-01T10:06:20.795Z,35.94
2023-06-01T10:07:14.045Z,35.84
2023-06-01T10:08:05.256Z,34.91
2023-06-01T10:08:57.888Z,34.63
2023-06-01T10:09:58.650Z,34.98
2023-06-01T10:10:50.606Z,34.14
2023-06-01T10:11:41.629Z,33.76
2023-06-01T10:12:34.400Z,33.57
2023-06-01T10:13:26.176Z,33.51
2023-06-01T10:14:18.415Z,33.13
2023-06-01T10:15:25.640Z,33.45
2023-06-01T10:16:20.981Z,33.75
2023-06-01T10:17:13.072Z,32.91
2023-06-01T10:18:05.389Z,33.33
2023-06-01T10:18:58.568Z,33.67
2023-06-01T10:19:50.437Z,34.30
2023-06-01T10:20:41.375Z,33.76
2023-06-01T10:21:33.341Z,33.47
2023-06-01T10:22:24.241Z,33.09
2023-06-01T10:24:10.938Z,32.76
2023-06-01T10:25:03.034Z,33.59
2023-06-01T10:25:56.250Z,33.12
2023-06-01T10:26:58.036Z,32.81
2023-06-01T10:28:03.074Z,32.59
2023-06-01T10:28:56.798Z,33.37
2023-06-01T10:29:48.601Z,33.25
2023-06-01T10:30:39.734Z,33.77
2023-06-01T10:31:42.589Z,34.01
2023-06-01T10:32:49.542Z,34.58
2023-06-01T10:33:59.146Z,34.61
2023-06-01T10:34:49.967Z,34.19
2023-06-01T10:35:52.597Z,34.11
2023-06-01T10:36:52.376Z,34.11
2023-06-01T10:37:43.049Z,33.79
2023-06-01T10:38:33.831Z,33.87
2023-06-01T10:39:26.404Z,33.23
2023-06-01T10:40:17.600Z,32.54
2023-06-01T10:41:32.049Z,32.95
2023-06-01T10:42:25.965Z,33.14
2023-06-01T10:43:41.590Z,33.71
2023-06-01T10:44:41.612Z,32.02
2023-06-01T10:45:38.970Z,32.73
2023-06-01T10:46:42.048Z,33.27
2023-06-01T10:47:34.155Z,33.56
2023-06-01T10:48:58.192Z,32.24
2023-06-01T10:49:55.264Z,31.28
2023-06-01T10:51:20.176Z,29.36
2023-06-01T10:52:29.626Z,28.25
2023-06-01T10:53:31.382Z,28.52
2023-06-01T10:54:32.119Z,28.74
2023-06-01T10:55:26.263Z,28.81
2023-06-01T10:56:23.533Z,29.88
2023-06-01T10:57:27.209Z,29.58
2023-06-01T10:58:25.218Z,28.56
2023-06-01T10:59:19.582Z,29.59
2023-06-01T11:00:29.174Z,29.24
2023-06-01T11:01:23.568Z,29.21
2023-06-01T11:02:14.398Z,29.54
2023-06-01T11:03:06.310Z,29.67
2023-06-01T11:03:57.758Z,29.96
2023-06-01T11:04:48.920Z,30.19
2023-06-01T11:05:47.696Z,29.42
2023-06-01T11:06:44.070Z,30.13
2023-06-01T11:07:40.635Z,30.75
2023-06-01T11:08:31.405Z,30.37
2023-06-01T11:09:22.144Z,29.85
2023-06-01T11:10:12.997Z,30.50
2023-06-01T11:11:05.060Z,31.08
2023-06-01T11:11:58.578Z,30.99
2023-06-01T11:13:19.101Z,30.75
2023-06-01T11:14:13.099Z,31.25
2023-06-01T11:15:13.507Z,31.27
2023-06-01T11:16:22.800Z,31.66
2023-06-01T11:17:30.143Z,31.60
2023-06-01T11:18:58.886Z,31.07
2023-06-01T11:19:50.111Z,31.78
2023-06-01T11:20:41.519Z,32.01
2023-06-01T11:21:44.794Z,32.20
2023-06-01T11:22:37.800Z,32.05
2023-06-01T11:23:28.769Z,31.96
2023-06-01T11:24:19.917Z,32.33
2023-06-01T11:25:13.401Z,31.96
2023-06-01T11:26:07.726Z,32.45
2023-06-01T11:26:58.924Z,31.66
2023-06-01T11:27:50.805Z,31.08
2023-06-01T11:28:41.933Z,31.51
2023-06-01T11:29:33.674Z,32.18
2023-06-01T11:30:24.252Z,32.36
2023-06-01T11:31:19.703Z,32.22
2023-06-01T11:32:11.227Z,32.77
2023-06-01T11:33:05.348Z,32.03
2023-06-01T11:33:58.115Z,31.49